الصفحة الرئيسية
METAR-TAF:

METAR-TAF

مطار :

ريسيفي, بيرنامبوكو, البرازيل

دائرة عرض: 08-08S, خط طول: 034-55W, ارتفاع: 19 متر

مراقبة الطقس الحالي

تاريخ ووقت الإصدار 19 دقيقة قبل الساعة 10:00UTC
ريح 9 عقدة من الشرق/الجنوب الشرقي
درجة الحرارة 27°درجة مئوية
الرطوبة 70%
ضغط 1014 hPa
الرؤية 10 كم أو أكثر
غيوم متفرقة على ارتفاع 2500 قدم

METAR: SBRF 141000Z 12009KT 9999 SCT025 27/21 Q1014

زمن: 07:19 (10:19 UTC)

توقعات

تاريخ ووقت الإصدار 9ساعات و 19 دقيقة قبل الساعة 01:00UTC
التوقعات صالحة من14 الساعة 06 UTC إلى 15 الساعة 06 UTC
ريح 12 عقدة من الجنوب الشرقي
الرؤية: 8000 متر
غيوم متفرقة على ارتفاع 2200 قدم

TAF: SBRF 140100Z 1406/1506 14012KT 8000 SCT022 TN26/1407Z TX30/1414Z RMK PCH

أرصاد الطقس والتوقعات من أكثر من 4000 مطار (تقارير الطقس للمطار METAR والتنبؤ بالطقس بالمطارTAF).

المحطات المتاحة هي النقط الصفراء والحمراء على الخريطة.

حرك المؤشر فوق النقطة لمعرفة اسم المحطة.

ثم انقر لمعرفة أرصاد وتوقعات الطقس.

لتغيير الخارطة: اضغط على الأزرار الخضراء مع رمز الصليب الأسود للتكبير. على الزر الأخضر مع شرطة للتصغير، أو على الأسهم الخضراء للخرائط المجاورة.


METAR-TAF: